SVA1048 OEJN-OERK
Flight info
| Callsign | SVA1048 |
|---|---|
| Flight time | 1h 11m |
| Altitude | 37000 |
| Route | EGREP T532 ORDEM |
| Aircraft | B77W/H-SDE2E3FGHIRWXY/L |
Departure
| Time | 2026-04-29 15:56 |
|---|---|
| Airport | King Abdulaziz International Airport (OEJN) |
Arrival
| Time | 2026-04-29 17:08 |
|---|---|
| Airport | King Khalid International Airport (OERK) |
| Time | Latitude | Longitude | Altitude | Speed | Heading |
|---|---|---|---|---|---|
| 2026-04-29 15:21 | 21.66609 | 39.17294 | 40 ft | 0 kts | 253° |
| 2026-04-29 15:45 | 21.66610 | 39.17296 | 39 ft | 2 kts | 253° |
| 2026-04-29 15:45 | 21.66619 | 39.17322 | 39 ft | 4 kts | 240° |
| 2026-04-29 15:45 | 21.66635 | 39.17344 | 35 ft | 4 kts | 219° |
| 2026-04-29 15:45 | 21.66657 | 39.17357 | 38 ft | 4 kts | 178° |
| 2026-04-29 15:46 | 21.66666 | 39.17356 | 36 ft | 0 kts | 160° |
| 2026-04-29 15:49 | 21.66654 | 39.17361 | 36 ft | 5 kts | 160° |
| 2026-04-29 15:49 | 21.66595 | 39.17384 | 40 ft | 10 kts | 160° |
| 2026-04-29 15:50 | 21.66519 | 39.17435 | 41 ft | 18 kts | 132° |
| 2026-04-29 15:50 | 21.66502 | 39.17550 | 41 ft | 15 kts | 76° |
| 2026-04-29 15:50 | 21.66537 | 39.17666 | 41 ft | 17 kts | 71° |
| 2026-04-29 15:50 | 21.66572 | 39.17766 | 41 ft | 11 kts | 69° |
| 2026-04-29 15:51 | 21.66603 | 39.17852 | 41 ft | 11 kts | 69° |
| 2026-04-29 15:51 | 21.66620 | 39.17902 | 41 ft | 0 kts | 70° |
| 2026-04-29 15:54 | 21.66622 | 39.17906 | 41 ft | 4 kts | 70° |
| 2026-04-29 15:54 | 21.66641 | 39.17962 | 41 ft | 10 kts | 68° |
| 2026-04-29 15:54 | 21.66678 | 39.18015 | 42 ft | 8 kts | 31° |
| 2026-04-29 15:55 | 21.66755 | 39.18005 | 41 ft | 4 kts | 340° |
| 2026-04-29 15:55 | 21.66762 | 39.18002 | 41 ft | 1 kts | 339° |
| 2026-04-29 15:55 | 21.66817 | 39.17980 | 42 ft | 26 kts | 340° |
| 2026-04-29 15:55 | 21.67289 | 39.17795 | 38 ft | 117 kts | 340° |
| 2026-04-29 15:56 | 21.68296 | 39.17398 | 88 ft | 184 kts | 339° |
| 2026-04-29 15:56 | 21.69590 | 39.16901 | 461 ft | 206 kts | 339° |
| 2026-04-29 15:56 | 21.70919 | 39.16381 | 1391 ft | 206 kts | 340° |
| 2026-04-29 15:56 | 21.72291 | 39.15838 | 2147 ft | 222 kts | 339° |
| 2026-04-29 15:57 | 21.73842 | 39.15435 | 2763 ft | 239 kts | 359° |
| 2026-04-29 15:57 | 21.75419 | 39.16059 | 3315 ft | 257 kts | 34° |
| 2026-04-29 15:57 | 21.76758 | 39.17369 | 3865 ft | 266 kts | 40° |
| 2026-04-29 15:57 | 21.78093 | 39.18761 | 4048 ft | 268 kts | 42° |
| 2026-04-29 15:58 | 21.79431 | 39.20138 | 4324 ft | 264 kts | 41° |
| 2026-04-29 15:58 | 21.80808 | 39.21523 | 4856 ft | 276 kts | 41° |
| 2026-04-29 15:58 | 21.82239 | 39.22934 | 5358 ft | 280 kts | 41° |
| 2026-04-29 15:58 | 21.83692 | 39.24348 | 5854 ft | 282 kts | 40° |
| 2026-04-29 15:59 | 21.85169 | 39.25768 | 6336 ft | 285 kts | 40° |
| 2026-04-29 15:59 | 21.86634 | 39.27165 | 6791 ft | 285 kts | 40° |
| 2026-04-29 15:59 | 21.88118 | 39.28571 | 7264 ft | 285 kts | 40° |
| 2026-04-29 15:59 | 21.89625 | 39.29992 | 7733 ft | 290 kts | 40° |
| 2026-04-29 16:00 | 21.91147 | 39.31425 | 8223 ft | 291 kts | 40° |
| 2026-04-29 16:00 | 21.92679 | 39.32864 | 8736 ft | 294 kts | 39° |
| 2026-04-29 16:00 | 21.94228 | 39.34316 | 9237 ft | 296 kts | 39° |
| 2026-04-29 16:00 | 21.95784 | 39.35775 | 9746 ft | 297 kts | 40° |
| 2026-04-29 16:01 | 21.97347 | 39.37239 | 10203 ft | 299 kts | 39° |
| 2026-04-29 16:01 | 21.98903 | 39.38698 | 10672 ft | 301 kts | 39° |
| 2026-04-29 16:01 | 22.00489 | 39.40185 | 11160 ft | 303 kts | 39° |
| 2026-04-29 16:01 | 22.02085 | 39.41681 | 11640 ft | 305 kts | 39° |
| 2026-04-29 16:02 | 22.03693 | 39.43189 | 12125 ft | 307 kts | 39° |
| 2026-04-29 16:02 | 22.05311 | 39.44706 | 12616 ft | 309 kts | 38° |
| 2026-04-29 16:02 | 22.06941 | 39.46235 | 13135 ft | 312 kts | 38° |
| 2026-04-29 16:02 | 22.08581 | 39.47773 | 13629 ft | 314 kts | 38° |
| 2026-04-29 16:03 | 22.10234 | 39.49324 | 14119 ft | 316 kts | 38° |
| 2026-04-29 16:03 | 22.11873 | 39.50864 | 14574 ft | 318 kts | 38° |
| 2026-04-29 16:03 | 22.13546 | 39.52436 | 15043 ft | 320 kts | 37° |
| 2026-04-29 16:03 | 22.15228 | 39.54016 | 15522 ft | 322 kts | 37° |
| 2026-04-29 16:04 | 22.16919 | 39.55605 | 15991 ft | 323 kts | 37° |
| 2026-04-29 16:04 | 22.18617 | 39.57201 | 16490 ft | 325 kts | 37° |
| 2026-04-29 16:04 | 22.20324 | 39.58806 | 16998 ft | 327 kts | 37° |
| 2026-04-29 16:04 | 22.22043 | 39.60422 | 17496 ft | 328 kts | 37° |
| 2026-04-29 16:05 | 22.23769 | 39.62045 | 18009 ft | 330 kts | 37° |
| 2026-04-29 16:05 | 22.25476 | 39.63657 | 18467 ft | 332 kts | 36° |
| 2026-04-29 16:05 | 22.27220 | 39.65300 | 18945 ft | 334 kts | 36° |
| 2026-04-29 16:05 | 22.28976 | 39.66953 | 19382 ft | 336 kts | 36° |
| 2026-04-29 16:06 | 22.30746 | 39.68619 | 19881 ft | 339 kts | 36° |
| 2026-04-29 16:06 | 22.32527 | 39.70298 | 20363 ft | 341 kts | 36° |
| 2026-04-29 16:06 | 22.34322 | 39.71992 | 20852 ft | 344 kts | 36° |
| 2026-04-29 16:06 | 22.36127 | 39.73694 | 21313 ft | 345 kts | 36° |
| 2026-04-29 16:07 | 22.37935 | 39.75402 | 21816 ft | 346 kts | 36° |
| 2026-04-29 16:07 | 22.39723 | 39.77092 | 22330 ft | 346 kts | 36° |
| 2026-04-29 16:07 | 22.41536 | 39.78806 | 22835 ft | 346 kts | 36° |
| 2026-04-29 16:07 | 22.43347 | 39.80518 | 23330 ft | 346 kts | 36° |
| 2026-04-29 16:08 | 22.45150 | 39.82223 | 23790 ft | 344 kts | 36° |
| 2026-04-29 16:08 | 22.46951 | 39.83925 | 24067 ft | 345 kts | 36° |
| 2026-04-29 16:08 | 22.48763 | 39.85644 | 24330 ft | 349 kts | 36° |
| 2026-04-29 16:08 | 22.50601 | 39.87393 | 24494 ft | 355 kts | 36° |
| 2026-04-29 16:09 | 22.52476 | 39.89176 | 24669 ft | 363 kts | 36° |
| 2026-04-29 16:09 | 22.54392 | 39.91002 | 24816 ft | 371 kts | 36° |
| 2026-04-29 16:09 | 22.56347 | 39.92867 | 24990 ft | 379 kts | 36° |
| 2026-04-29 16:09 | 22.58316 | 39.94746 | 25147 ft | 386 kts | 36° |
| 2026-04-29 16:10 | 22.60349 | 39.96689 | 25306 ft | 393 kts | 36° |
| 2026-04-29 16:10 | 22.62418 | 39.98667 | 25460 ft | 400 kts | 36° |
| 2026-04-29 16:10 | 22.64513 | 40.00672 | 25613 ft | 403 kts | 36° |
| 2026-04-29 16:10 | 22.66616 | 40.02686 | 25738 ft | 405 kts | 36° |
| 2026-04-29 16:11 | 22.68743 | 40.04723 | 25908 ft | 412 kts | 36° |
| 2026-04-29 16:11 | 22.70907 | 40.06794 | 26063 ft | 419 kts | 36° |
| 2026-04-29 16:11 | 22.73110 | 40.08902 | 26164 ft | 426 kts | 36° |
| 2026-04-29 16:11 | 22.75351 | 40.11047 | 26282 ft | 434 kts | 36° |
| 2026-04-29 16:12 | 22.77599 | 40.13200 | 26406 ft | 441 kts | 36° |
| 2026-04-29 16:12 | 22.79157 | 40.14695 | 26478 ft | 445 kts | 36° |
| 2026-04-29 16:12 | 22.82256 | 40.17669 | 26624 ft | 454 kts | 36° |
| 2026-04-29 16:12 | 22.84636 | 40.19953 | 26736 ft | 460 kts | 36° |
| 2026-04-29 16:13 | 22.87042 | 40.22265 | 26829 ft | 465 kts | 37° |
| 2026-04-29 16:13 | 22.89478 | 40.24607 | 26962 ft | 471 kts | 37° |
| 2026-04-29 16:13 | 22.91942 | 40.26976 | 27054 ft | 476 kts | 37° |
| 2026-04-29 16:13 | 22.94433 | 40.29373 | 27165 ft | 481 kts | 37° |
| 2026-04-29 16:14 | 22.96947 | 40.31793 | 27268 ft | 485 kts | 37° |
| 2026-04-29 16:14 | 22.99447 | 40.34201 | 27370 ft | 490 kts | 37° |
| 2026-04-29 16:14 | 23.02007 | 40.36667 | 27479 ft | 494 kts | 37° |
| 2026-04-29 16:14 | 23.04583 | 40.39152 | 27572 ft | 498 kts | 37° |
| 2026-04-29 16:15 | 23.07181 | 40.41657 | 27678 ft | 501 kts | 37° |
| 2026-04-29 16:15 | 23.09793 | 40.44178 | 27796 ft | 504 kts | 37° |
| 2026-04-29 16:15 | 23.12423 | 40.46718 | 27907 ft | 507 kts | 37° |
| 2026-04-29 16:16 | 23.17726 | 40.51844 | 28098 ft | 513 kts | 37° |
| 2026-04-29 16:16 | 23.23044 | 40.56991 | 28299 ft | 518 kts | 37° |
| 2026-04-29 16:17 | 23.28123 | 40.62570 | 28492 ft | 528 kts | 53° |
| 2026-04-29 16:17 | 23.29808 | 40.66138 | 28590 ft | 534 kts | 69° |
| 2026-04-29 16:17 | 23.30861 | 40.70006 | 28709 ft | 532 kts | 73° |
| 2026-04-29 16:17 | 23.31957 | 40.73860 | 28833 ft | 534 kts | 70° |
| 2026-04-29 16:18 | 23.33213 | 40.77665 | 28936 ft | 536 kts | 68° |
| 2026-04-29 16:18 | 23.34554 | 40.81451 | 29042 ft | 537 kts | 67° |
| 2026-04-29 16:18 | 23.35927 | 40.85242 | 29150 ft | 539 kts | 67° |
| 2026-04-29 16:19 | 23.38641 | 40.92814 | 29341 ft | 542 kts | 68° |
| 2026-04-29 16:19 | 23.39986 | 40.96651 | 29454 ft | 544 kts | 68° |
| 2026-04-29 16:19 | 23.41323 | 41.00505 | 29578 ft | 545 kts | 68° |
| 2026-04-29 16:19 | 23.42657 | 41.04374 | 29686 ft | 546 kts | 69° |
| 2026-04-29 16:20 | 23.43990 | 41.08251 | 29795 ft | 547 kts | 69° |
| 2026-04-29 16:20 | 23.45326 | 41.12138 | 29910 ft | 549 kts | 69° |
| 2026-04-29 16:20 | 23.46665 | 41.16031 | 29994 ft | 549 kts | 69° |
| 2026-04-29 16:20 | 23.48007 | 41.19932 | 30096 ft | 550 kts | 69° |
| 2026-04-29 16:21 | 23.49332 | 41.23784 | 30194 ft | 551 kts | 69° |
| 2026-04-29 16:21 | 23.52022 | 41.31615 | 30356 ft | 552 kts | 69° |
| 2026-04-29 16:21 | 23.53368 | 41.35537 | 30457 ft | 553 kts | 69° |
| 2026-04-29 16:22 | 23.54713 | 41.39464 | 30545 ft | 553 kts | 69° |
| 2026-04-29 16:22 | 23.57403 | 41.47328 | 30714 ft | 554 kts | 69° |
| 2026-04-29 16:23 | 23.60074 | 41.55150 | 30895 ft | 555 kts | 69° |
| 2026-04-29 16:23 | 23.62765 | 41.63046 | 30996 ft | 556 kts | 69° |
| 2026-04-29 16:24 | 23.65456 | 41.70955 | 31165 ft | 557 kts | 69° |
| 2026-04-29 16:24 | 23.68125 | 41.78890 | 31282 ft | 558 kts | 70° |
| 2026-04-29 16:25 | 23.70639 | 41.86895 | 31417 ft | 558 kts | 71° |
| 2026-04-29 16:25 | 23.73123 | 41.94860 | 31556 ft | 558 kts | 71° |
| 2026-04-29 16:26 | 23.75687 | 42.02853 | 31658 ft | 558 kts | 70° |
| 2026-04-29 16:26 | 23.78408 | 42.10781 | 31813 ft | 557 kts | 69° |
| 2026-04-29 16:27 | 23.81154 | 42.18699 | 31925 ft | 558 kts | 69° |
| 2026-04-29 16:27 | 23.83856 | 42.26592 | 31938 ft | 560 kts | 69° |
| 2026-04-29 16:28 | 23.86564 | 42.34573 | 31957 ft | 561 kts | 69° |
| 2026-04-29 16:28 | 23.89276 | 42.42587 | 31967 ft | 563 kts | 70° |
| 2026-04-29 16:29 | 23.91996 | 42.50630 | 31956 ft | 565 kts | 70° |
| 2026-04-29 16:29 | 23.94703 | 42.58648 | 31950 ft | 567 kts | 70° |
| 2026-04-29 16:30 | 23.97429 | 42.66736 | 31947 ft | 567 kts | 70° |
| 2026-04-29 16:30 | 24.00153 | 42.74839 | 31955 ft | 568 kts | 70° |
| 2026-04-29 16:31 | 24.02877 | 42.82956 | 31961 ft | 569 kts | 70° |
| 2026-04-29 16:31 | 24.05598 | 42.91087 | 31956 ft | 570 kts | 70° |
| 2026-04-29 16:32 | 24.08277 | 42.99189 | 31947 ft | 570 kts | 70° |
| 2026-04-29 16:32 | 24.10961 | 43.07359 | 31940 ft | 570 kts | 71° |
| 2026-04-29 16:33 | 24.14982 | 43.19616 | 31958 ft | 571 kts | 70° |
| 2026-04-29 16:33 | 24.17665 | 43.27803 | 31941 ft | 571 kts | 71° |
| 2026-04-29 16:34 | 24.20325 | 43.35935 | 31951 ft | 571 kts | 71° |
| 2026-04-29 16:34 | 24.22997 | 43.44124 | 31927 ft | 571 kts | 71° |
| 2026-04-29 16:35 | 24.25665 | 43.52316 | 31954 ft | 571 kts | 71° |
| 2026-04-29 16:35 | 24.28334 | 43.60514 | 31953 ft | 571 kts | 71° |
| 2026-04-29 16:36 | 24.30969 | 43.68659 | 31944 ft | 571 kts | 71° |
| 2026-04-29 16:36 | 24.33621 | 43.76857 | 31952 ft | 570 kts | 71° |
| 2026-04-29 16:37 | 24.36272 | 43.85058 | 31940 ft | 570 kts | 71° |
| 2026-04-29 16:37 | 24.38468 | 43.91871 | 31945 ft | 570 kts | 71° |
| 2026-04-29 16:38 | 24.41535 | 44.01407 | 31954 ft | 570 kts | 71° |
| 2026-04-29 16:38 | 24.44168 | 44.09610 | 31942 ft | 570 kts | 71° |
| 2026-04-29 16:39 | 24.46247 | 44.17970 | 31944 ft | 566 kts | 82° |
| 2026-04-29 16:39 | 24.47513 | 44.26503 | 31939 ft | 567 kts | 83° |
| 2026-04-29 16:40 | 24.48872 | 44.35025 | 31950 ft | 567 kts | 82° |
| 2026-04-29 16:40 | 24.50339 | 44.43471 | 31947 ft | 567 kts | 81° |
| 2026-04-29 16:41 | 24.51806 | 44.51975 | 31962 ft | 567 kts | 81° |
| 2026-04-29 16:41 | 24.53269 | 44.60482 | 31969 ft | 567 kts | 81° |
| 2026-04-29 16:42 | 24.54737 | 44.68995 | 31960 ft | 567 kts | 81° |
| 2026-04-29 16:42 | 24.56190 | 44.77454 | 31959 ft | 568 kts | 81° |
| 2026-04-29 16:43 | 24.57646 | 44.85977 | 31950 ft | 568 kts | 81° |
| 2026-04-29 16:43 | 24.59096 | 44.94491 | 31934 ft | 560 kts | 81° |
| 2026-04-29 16:44 | 24.59805 | 44.98658 | 31555 ft | 552 kts | 82° |
| 2026-04-29 16:44 | 24.60506 | 45.02803 | 30865 ft | 552 kts | 82° |
| 2026-04-29 16:44 | 24.61202 | 45.06947 | 30221 ft | 551 kts | 82° |
| 2026-04-29 16:44 | 24.61896 | 45.11086 | 29491 ft | 550 kts | 82° |
| 2026-04-29 16:45 | 24.62575 | 45.15151 | 28739 ft | 548 kts | 81° |
| 2026-04-29 16:45 | 24.63262 | 45.19256 | 28007 ft | 545 kts | 81° |
| 2026-04-29 16:45 | 24.63944 | 45.23341 | 27299 ft | 542 kts | 81° |
| 2026-04-29 16:45 | 24.64623 | 45.27404 | 26607 ft | 539 kts | 81° |
| 2026-04-29 16:46 | 24.65296 | 45.31443 | 25928 ft | 535 kts | 81° |
| 2026-04-29 16:46 | 24.65962 | 45.35452 | 25265 ft | 531 kts | 81° |
| 2026-04-29 16:46 | 24.66624 | 45.39436 | 24613 ft | 527 kts | 81° |
| 2026-04-29 16:46 | 24.67278 | 45.43385 | 23979 ft | 523 kts | 80° |
| 2026-04-29 16:47 | 24.67927 | 45.47307 | 23323 ft | 519 kts | 80° |
| 2026-04-29 16:47 | 24.68561 | 45.51138 | 22582 ft | 515 kts | 81° |
| 2026-04-29 16:47 | 24.69197 | 45.54996 | 21851 ft | 511 kts | 81° |
| 2026-04-29 16:47 | 24.69827 | 45.58820 | 21286 ft | 504 kts | 81° |
| 2026-04-29 16:48 | 24.70442 | 45.62557 | 21064 ft | 489 kts | 81° |
| 2026-04-29 16:48 | 24.71037 | 45.66177 | 20985 ft | 473 kts | 81° |
| 2026-04-29 16:48 | 24.71607 | 45.69672 | 20954 ft | 456 kts | 82° |
| 2026-04-29 16:48 | 24.72145 | 45.73051 | 20919 ft | 441 kts | 82° |
| 2026-04-29 16:49 | 24.72659 | 45.76322 | 20897 ft | 427 kts | 82° |
| 2026-04-29 16:49 | 24.73155 | 45.79494 | 20879 ft | 427 kts | 83° |
| 2026-04-29 16:49 | 24.73657 | 45.82711 | 20789 ft | 428 kts | 83° |
| 2026-04-29 16:49 | 24.74161 | 45.85940 | 20505 ft | 428 kts | 83° |
| 2026-04-29 16:50 | 24.74664 | 45.89157 | 20220 ft | 425 kts | 83° |
| 2026-04-29 16:50 | 24.75164 | 45.92348 | 19924 ft | 421 kts | 83° |
| 2026-04-29 16:50 | 24.75659 | 45.95508 | 19652 ft | 417 kts | 83° |
| 2026-04-29 16:50 | 24.76149 | 45.98642 | 19366 ft | 414 kts | 83° |
| 2026-04-29 16:51 | 24.76634 | 46.01752 | 19093 ft | 411 kts | 83° |
| 2026-04-29 16:51 | 24.77115 | 46.04841 | 18817 ft | 408 kts | 83° |
| 2026-04-29 16:51 | 24.77586 | 46.07868 | 18554 ft | 406 kts | 83° |
| 2026-04-29 16:51 | 24.78061 | 46.10926 | 18287 ft | 405 kts | 83° |
| 2026-04-29 16:52 | 24.78534 | 46.13985 | 17989 ft | 406 kts | 83° |
| 2026-04-29 16:52 | 24.79008 | 46.17052 | 17677 ft | 407 kts | 83° |
| 2026-04-29 16:52 | 24.79481 | 46.20111 | 17378 ft | 405 kts | 83° |
| 2026-04-29 16:52 | 24.79951 | 46.23159 | 17025 ft | 403 kts | 83° |
| 2026-04-29 16:53 | 24.80421 | 46.26205 | 16502 ft | 405 kts | 83° |
| 2026-04-29 16:53 | 24.80891 | 46.29265 | 15967 ft | 406 kts | 83° |
| 2026-04-29 16:53 | 24.81362 | 46.32330 | 15449 ft | 407 kts | 83° |
| 2026-04-29 16:53 | 24.81827 | 46.35362 | 14941 ft | 407 kts | 83° |
| 2026-04-29 16:54 | 24.82299 | 46.38439 | 14431 ft | 408 kts | 83° |
| 2026-04-29 16:54 | 24.82770 | 46.41519 | 13933 ft | 409 kts | 83° |
| 2026-04-29 16:54 | 24.83243 | 46.44605 | 13380 ft | 409 kts | 83° |
| 2026-04-29 16:54 | 24.83713 | 46.47686 | 12847 ft | 408 kts | 83° |
| 2026-04-29 16:55 | 24.84021 | 46.50727 | 12277 ft | 390 kts | 95° |
| 2026-04-29 16:55 | 24.83549 | 46.53554 | 11715 ft | 366 kts | 110° |
| 2026-04-29 16:55 | 24.82892 | 46.56202 | 11190 ft | 352 kts | 108° |
| 2026-04-29 16:55 | 24.82299 | 46.58738 | 10659 ft | 339 kts | 111° |
| 2026-04-29 16:56 | 24.81355 | 46.61037 | 10130 ft | 322 kts | 128° |
| 2026-04-29 16:56 | 24.79905 | 46.62804 | 9579 ft | 304 kts | 146° |
| 2026-04-29 16:56 | 24.78271 | 46.64217 | 9054 ft | 294 kts | 145° |
| 2026-04-29 16:56 | 24.76691 | 46.65610 | 8502 ft | 288 kts | 144° |
| 2026-04-29 16:57 | 24.75139 | 46.66966 | 7975 ft | 282 kts | 144° |
| 2026-04-29 16:57 | 24.73609 | 46.68283 | 7442 ft | 277 kts | 145° |
| 2026-04-29 16:57 | 24.72097 | 46.69572 | 6926 ft | 273 kts | 144° |
| 2026-04-29 16:57 | 24.70617 | 46.70816 | 6436 ft | 270 kts | 144° |
| 2026-04-29 16:58 | 24.69119 | 46.72046 | 5896 ft | 267 kts | 144° |
| 2026-04-29 16:58 | 24.67618 | 46.73229 | 5376 ft | 264 kts | 144° |
| 2026-04-29 16:58 | 24.66113 | 46.74357 | 5141 ft | 261 kts | 144° |
| 2026-04-29 16:58 | 24.64589 | 46.75471 | 5019 ft | 265 kts | 144° |
| 2026-04-29 16:59 | 24.63072 | 46.76566 | 4983 ft | 257 kts | 145° |
| 2026-04-29 16:59 | 24.61706 | 46.77769 | 4789 ft | 250 kts | 128° |
| 2026-04-29 16:59 | 24.60876 | 46.79409 | 4579 ft | 243 kts | 104° |
| 2026-04-29 16:59 | 24.60844 | 46.81225 | 4336 ft | 238 kts | 73° |
| 2026-04-29 17:00 | 24.61661 | 46.82730 | 4181 ft | 232 kts | 43° |
| 2026-04-29 17:00 | 24.63084 | 46.83517 | 4134 ft | 235 kts | 13° |
| 2026-04-29 17:00 | 24.64751 | 46.83560 | 4149 ft | 243 kts | 0° |
| 2026-04-29 17:00 | 24.66383 | 46.83506 | 4132 ft | 223 kts | 3° |
| 2026-04-29 17:01 | 24.67860 | 46.83478 | 4006 ft | 203 kts | 3° |
| 2026-04-29 17:01 | 24.69211 | 46.83448 | 3815 ft | 186 kts | 3° |
| 2026-04-29 17:01 | 24.70474 | 46.83419 | 3621 ft | 180 kts | 3° |
| 2026-04-29 17:01 | 24.71727 | 46.83388 | 3469 ft | 178 kts | 3° |
| 2026-04-29 17:02 | 24.72946 | 46.83357 | 3401 ft | 175 kts | 3° |
| 2026-04-29 17:02 | 24.74156 | 46.83326 | 3356 ft | 177 kts | 4° |
| 2026-04-29 17:02 | 24.75396 | 46.83296 | 3316 ft | 180 kts | 3° |
| 2026-04-29 17:02 | 24.76649 | 46.83248 | 3296 ft | 181 kts | 357° |
| 2026-04-29 17:03 | 24.77824 | 46.82731 | 3311 ft | 184 kts | 333° |
| 2026-04-29 17:03 | 24.78940 | 46.82008 | 3310 ft | 188 kts | 335° |
| 2026-04-29 17:03 | 24.80059 | 46.81315 | 3286 ft | 180 kts | 334° |
| 2026-04-29 17:03 | 24.81117 | 46.80655 | 3277 ft | 171 kts | 335° |
| 2026-04-29 17:04 | 24.82182 | 46.80126 | 3289 ft | 167 kts | 346° |
| 2026-04-29 17:04 | 24.83239 | 46.79534 | 3312 ft | 174 kts | 330° |
| 2026-04-29 17:04 | 24.84211 | 46.78831 | 3317 ft | 166 kts | 333° |
| 2026-04-29 17:04 | 24.85188 | 46.78193 | 3289 ft | 161 kts | 335° |
| 2026-04-29 17:05 | 24.86157 | 46.77574 | 3292 ft | 159 kts | 335° |
| 2026-04-29 17:05 | 24.87100 | 46.76971 | 3283 ft | 154 kts | 335° |
| 2026-04-29 17:05 | 24.88008 | 46.76389 | 3279 ft | 148 kts | 336° |
| 2026-04-29 17:05 | 24.88909 | 46.75843 | 3291 ft | 149 kts | 336° |
| 2026-04-29 17:06 | 24.89804 | 46.75263 | 3307 ft | 150 kts | 335° |
| 2026-04-29 17:06 | 24.90721 | 46.74655 | 3150 ft | 156 kts | 334° |
| 2026-04-29 17:06 | 24.91612 | 46.74040 | 2881 ft | 150 kts | 331° |
| 2026-04-29 17:06 | 24.92479 | 46.73481 | 2595 ft | 141 kts | 337° |
| 2026-04-29 17:07 | 24.93321 | 46.72963 | 2359 ft | 139 kts | 334° |
| 2026-04-29 17:07 | 24.93890 | 46.72610 | 2202 ft | 137 kts | 332° |
| 2026-04-29 17:07 | 24.95000 | 46.71901 | 2085 ft | 143 kts | 331° |
| 2026-04-29 17:07 | 24.95861 | 46.71353 | 2044 ft | 136 kts | 333° |
| 2026-04-29 17:08 | 24.96575 | 46.70910 | 2042 ft | 72 kts | 326° |
| 2026-04-29 17:08 | 24.96777 | 46.70777 | 2044 ft | 23 kts | 330° |
| 2026-04-29 17:08 | 24.96930 | 46.70680 | 2039 ft | 25 kts | 330° |
| 2026-04-29 17:08 | 24.97075 | 46.70585 | 2034 ft | 15 kts | 323° |
| 2026-04-29 17:09 | 24.97103 | 46.70502 | 2040 ft | 9 kts | 259° |
| 2026-04-29 17:09 | 24.97084 | 46.70452 | 2041 ft | 0 kts | 243° |
| 2026-04-29 17:10 | 24.97060 | 46.70402 | 2043 ft | 14 kts | 240° |
| 2026-04-29 17:10 | 24.97018 | 46.70322 | 2042 ft | 8 kts | 240° |
| 2026-04-29 17:10 | 24.96976 | 46.70243 | 2043 ft | 14 kts | 238° |
| 2026-04-29 17:11 | 24.96894 | 46.70220 | 2040 ft | 17 kts | 158° |
| 2026-04-29 17:11 | 24.96777 | 46.70292 | 2043 ft | 22 kts | 150° |
| 2026-04-29 17:11 | 24.96645 | 46.70375 | 2042 ft | 18 kts | 149° |
| 2026-04-29 17:11 | 24.96560 | 46.70430 | 2041 ft | 10 kts | 150° |
| 2026-04-29 17:12 | 24.96494 | 46.70470 | 2042 ft | 10 kts | 150° |
| 2026-04-29 17:12 | 24.96442 | 46.70491 | 2042 ft | 9 kts | 176° |
| 2026-04-29 17:12 | 24.96395 | 46.70452 | 2044 ft | 9 kts | 240° |
| 2026-04-29 17:12 | 24.96364 | 46.70411 | 2042 ft | 12 kts | 215° |
| 2026-04-29 17:13 | 24.96248 | 46.70451 | 2037 ft | 15 kts | 150° |
| 2026-04-29 17:13 | 24.96174 | 46.70498 | 2038 ft | 11 kts | 150° |
| 2026-04-29 17:13 | 24.96115 | 46.70531 | 2042 ft | 8 kts | 166° |
| 2026-04-29 17:13 | 24.96055 | 46.70513 | 2041 ft | 8 kts | 207° |
| 2026-04-29 17:14 | 24.96008 | 46.70488 | 2041 ft | 7 kts | 204° |
| 2026-04-29 17:14 | 24.95981 | 46.70474 | 2043 ft | 1 kts | 204° |
| 2026-04-29 17:14 | 24.95972 | 46.70470 | 2042 ft | 2 kts | 204° |
| 2026-04-29 17:14 | 24.95969 | 46.70469 | 2041 ft | 0 kts | 204° |